Weather History for Hazen, ND

Change the Weather History Date:

Friday, November 18, 2011

  Actual Average (KN60) Record (KN60)
Temperature  
Mean Temperature 24 °F -  
Max Temperature 35 °F 33 °F 54 °F (2007)
Min Temperature 12 °F 16 °F -2 °F (1996)
Degree Days  
Heating Degree Days 42    
Moisture  
Dew Point 16 °F    
Average Humidity 65    
Maximum Humidity 80    
Minimum Humidity 48    
Precipitation  
Precipitation 0.01 in - - ()
Sea Level Pressure  
Sea Level Pressure 29.69 in    
Wind  
Wind Speed 9 mph (WNW)    
Max Wind Speed 20 mph    
Max Gust Speed 24 mph    
Visibility 10 miles    
Events Snow    
Averages and records for this station are not official NWS values.
T = Trace of Precipitation, MM = Missing Value Source: NWS Daily Summary

Daily Weather History Graph

Daily Weather History Graph

Search for Another Location

Airport:

Trip Planner

Search our weather history database for the weather conditions in past years. The results will help you decide how hot, cold, wet, or windy it might be!

Date:

Astronomy

Nov. 18, 2011 Rise Set
Actual Time 7:54 AM CST 5:07 PM CST
Civil Twilight 7:20 AM CST 5:41 PM CST
Nautical Twilight 6:43 AM CST 6:18 PM CST
Astronomical Twilight 6:07 AM CST 6:55 PM CST
Moon No Moon Rise 1:22 PM CST (11/18)
Length of Visible Light 10h 20m
Length of Day
9h 13m
Waning Gibbous, 49% of the Moon is Illuminated
Nov 18
Waning Gibbous
Nov 25
New
Dec 2
First Quarter
Dec 10
Full
Dec 17
Last Quarter

Hourly Weather History & Observations

Time (CST) Temp. Windchill Dew Point Humidity Pressure Visibility Wind Dir Wind Speed Gust Speed Precip Events Conditions
12:15 AM 30.2 °F - 15.8 °F 55% 29.50 in 10.0 mi Calm Calm - N/A   Scattered Clouds
12:35 AM 28.4 °F - 15.8 °F 59% 29.51 in 10.0 mi Calm Calm - N/A   Clear
12:55 AM 28.4 °F 23.3 °F 15.8 °F 59% 29.51 in 10.0 mi WSW 4.6 mph - N/A   Clear
1:15 AM 30.2 °F 22.6 °F 15.8 °F 55% 29.52 in 10.0 mi West 8.1 mph - N/A   Partly Cloudy
1:35 AM 32.0 °F 28.7 °F 15.8 °F 51% 29.51 in 10.0 mi SW 3.5 mph - N/A   Mostly Cloudy
1:55 AM 32.0 °F 24.2 °F 17.6 °F 55% 29.52 in 10.0 mi SW 9.2 mph - N/A   Scattered Clouds
2:15 AM 33.8 °F 26.4 °F 17.6 °F 52% 29.52 in 10.0 mi SW 9.2 mph - N/A   Partly Cloudy
2:35 AM 35.6 °F 27.5 °F 17.6 °F 48% 29.52 in 10.0 mi SW 11.5 mph - N/A   Mostly Cloudy
2:55 AM 35.6 °F 29.2 °F 17.6 °F 48% 29.54 in 10.0 mi WSW 8.1 mph - N/A   Overcast
3:15 AM 35.6 °F 30.7 °F 17.6 °F 48% 29.53 in 10.0 mi WSW 5.8 mph - N/A   Overcast
3:35 AM 35.6 °F 28.0 °F 17.6 °F 48% 29.55 in 10.0 mi West 10.4 mph - N/A   Overcast
3:55 AM 35.6 °F 28.6 °F 17.6 °F 48% 29.55 in 10.0 mi WSW 9.2 mph - N/A   Overcast
4:15 AM 35.6 °F 27.1 °F 17.6 °F 48% 29.55 in 10.0 mi WSW 12.7 mph - N/A   Overcast
4:35 AM 35.6 °F 29.9 °F 17.6 °F 48% 29.55 in 10.0 mi West 6.9 mph - N/A   Overcast
4:55 AM 35.6 °F 29.9 °F 17.6 °F 48% 29.56 in 10.0 mi WNW 6.9 mph - N/A   Overcast
5:15 AM 35.6 °F 29.2 °F 17.6 °F 48% 29.55 in 10.0 mi WNW 8.1 mph - N/A   Overcast
5:35 AM 35.6 °F 27.5 °F 17.6 °F 48% 29.57 in 10.0 mi West 11.5 mph - N/A   Overcast
5:55 AM 33.8 °F 25.3 °F 21.2 °F 60% 29.56 in 10.0 mi NW 11.5 mph - N/A   Overcast
6:35 AM 32.0 °F 24.2 °F 24.8 °F 75% 29.58 in 10.0 mi NW 9.2 mph - N/A   Overcast
6:55 AM 32.0 °F 23.6 °F 24.8 °F 75% 29.60 in 10.0 mi WNW 10.4 mph - N/A   Overcast
7:15 AM 32.0 °F 24.2 °F 24.8 °F 75% 29.61 in 10.0 mi WNW 9.2 mph - N/A   Mostly Cloudy
7:35 AM 30.2 °F 22.6 °F 24.8 °F 80% 29.62 in 10.0 mi NW 8.1 mph - N/A   Mostly Cloudy
8:15 AM 30.2 °F 25.4 °F 24.8 °F 80% 29.63 in 10.0 mi NW 4.6 mph - N/A   Overcast
8:35 AM 30.2 °F 25.4 °F 24.8 °F 80% 29.64 in 10.0 mi NW 4.6 mph - N/A   Overcast
8:55 AM 30.2 °F 24.3 °F 24.8 °F 80% 29.64 in 10.0 mi NW 5.8 mph - N/A   Overcast
9:35 AM 30.2 °F 22.6 °F 24.8 °F 80% 29.65 in 10.0 mi NW 8.1 mph - N/A   Overcast
9:55 AM 30.2 °F 22.6 °F 23.0 °F 75% 29.66 in 10.0 mi NW 8.1 mph - N/A   Overcast
10:15 AM 32.0 °F 21.6 °F 23.0 °F 69% 29.67 in 10.0 mi NW 15.0 mph - N/A   Overcast
10:35 AM 30.2 °F 19.3 °F 23.0 °F 75% 29.68 in 10.0 mi NNW 15.0 mph - N/A   Overcast
10:55 AM 30.2 °F 19.3 °F 23.0 °F 75% 29.70 in 10.0 mi NW 15.0 mph - N/A   Overcast
11:35 AM 28.4 °F 17.0 °F 21.2 °F 74% 29.70 in 10.0 mi WNW 15.0 mph - N/A   Overcast
11:55 AM 28.4 °F 17.5 °F 19.4 °F 69% 29.70 in 10.0 mi NW 13.8 mph 18.4 mph N/A   Overcast
12:15 PM 28.4 °F 17.0 °F 19.4 °F 69% 29.70 in 10.0 mi WNW 15.0 mph 20.7 mph N/A   Overcast
12:35 PM 28.4 °F 17.5 °F 17.6 °F 64% 29.71 in 10.0 mi WNW 13.8 mph 20.7 mph N/A   Overcast
12:55 PM 28.4 °F 17.5 °F 17.6 °F 64% 29.70 in 10.0 mi WNW 13.8 mph - N/A   Overcast
1:15 PM 28.4 °F 15.8 °F 17.6 °F 64% 29.70 in 10.0 mi NW 18.4 mph - N/A   Overcast
1:35 PM 28.4 °F 16.2 °F 17.6 °F 64% 29.70 in 10.0 mi WNW 17.3 mph 23.0 mph N/A   Overcast
1:55 PM 26.6 °F 13.8 °F 17.6 °F 69% 29.71 in 10.0 mi WNW 17.3 mph - N/A   Overcast
2:15 PM 26.6 °F 13.4 °F 15.8 °F 64% 29.72 in 10.0 mi WNW 18.4 mph 24.2 mph N/A   Overcast
2:35 PM 26.6 °F 14.7 °F 15.8 °F 64% 29.72 in 10.0 mi WNW 15.0 mph 21.9 mph N/A   Mostly Cloudy
2:55 PM 26.6 °F 14.3 °F 14.0 °F 59% 29.73 in 10.0 mi WNW 16.1 mph 23.0 mph N/A   Mostly Cloudy
3:15 PM 24.8 °F 10.7 °F 12.2 °F 59% 29.73 in 10.0 mi NW 19.6 mph 24.2 mph N/A   Mostly Cloudy
3:55 PM 24.8 °F 10.7 °F 10.4 °F 54% 29.75 in 10.0 mi WNW 19.6 mph 24.2 mph N/A   Overcast
4:15 PM 24.8 °F 11.1 °F 10.4 °F 54% 29.75 in 10.0 mi WNW 18.4 mph 21.9 mph N/A   Overcast
4:35 PM 24.8 °F 12.4 °F 10.4 °F 54% 29.77 in 10.0 mi WNW 15.0 mph - N/A   Overcast
4:55 PM 23.0 °F 8.7 °F 10.4 °F 59% 29.77 in 10.0 mi WNW 18.4 mph - N/A   Overcast
5:15 PM 23.0 °F 9.2 °F 10.4 °F 59% 29.79 in 10.0 mi WNW 17.3 mph 20.7 mph N/A   Mostly Cloudy
5:55 PM 21.2 °F 7.3 °F 10.4 °F 63% 29.82 in 10.0 mi NW 16.1 mph 23.0 mph N/A   Overcast
6:15 PM 19.4 °F 6.0 °F 14.0 °F 80% 29.83 in 10.0 mi NNW 13.8 mph 19.6 mph N/A Snow Light Snow
6:35 PM 19.4 °F 6.0 °F 10.4 °F 68% 29.84 in 8.0 mi NNW 13.8 mph - N/A Snow Light Snow
6:55 PM 19.4 °F 6.6 °F 8.6 °F 63% 29.85 in 10.0 mi NNW 12.7 mph - 0.01 in   Overcast
7:15 PM 17.6 °F 5.0 °F 8.6 °F 68% 29.87 in 10.0 mi NNW 11.5 mph 18.4 mph N/A   Overcast
7:55 PM 15.8 °F 1.4 °F 8.6 °F 73% 29.87 in 10.0 mi NW 13.8 mph - N/A   Scattered Clouds
8:15 PM 15.8 °F 0.3 °F 8.6 °F 73% 29.88 in 10.0 mi NNW 16.1 mph 21.9 mph N/A   Mostly Cloudy
8:55 PM 14.0 °F 0.5 °F 8.6 °F 79% 29.90 in 10.0 mi NW 11.5 mph 16.1 mph N/A   Clear
9:15 PM 14.0 °F 1.2 °F 8.6 °F 79% 29.91 in 10.0 mi NW 10.4 mph - N/A   Clear
9:35 PM 14.0 °F 1.2 °F 8.6 °F 79% 29.92 in 10.0 mi NW 10.4 mph - N/A   Scattered Clouds
9:55 PM 14.0 °F 0.5 °F 8.6 °F 79% 29.91 in 10.0 mi NW 11.5 mph - N/A   Overcast
10:15 PM 14.0 °F -0.2 °F 8.6 °F 79% 29.90 in 10.0 mi NNW 12.7 mph - N/A Snow Light Snow
10:35 PM 14.0 °F -0.8 °F 8.6 °F 79% 29.90 in 10.0 mi North 13.8 mph - N/A Snow Light Snow
11:15 PM 12.2 °F -0.2 °F 6.8 °F 79% 29.93 in 10.0 mi North 9.2 mph - N/A   Clear
11:35 PM 12.2 °F 0.7 °F 6.8 °F 79% 29.92 in 10.0 mi North 8.1 mph - N/A   Clear
11:55 PM 12.2 °F -0.2 °F 6.8 °F 79% 29.92 in 10.0 mi NNW 9.2 mph - N/A Snow Light Snow